sensor_id;sensor_type;location;lat;lon;timestamp;P1;durP1;ratioP1;P2;durP2;ratioP2
15273;SDS011;7738;49.532;11.156;2023-05-02T00:01:27;8.60;;;6.43;;
15273;SDS011;7738;49.532;11.156;2023-05-02T00:03:58;9.13;;;6.90;;
15273;SDS011;7738;49.532;11.156;2023-05-02T00:06:28;6.90;;;5.63;;
15273;SDS011;7738;49.532;11.156;2023-05-02T00:09:02;9.65;;;7.20;;
15273;SDS011;7738;49.532;11.156;2023-05-02T00:11:32;11.65;;;7.43;;
15273;SDS011;7738;49.532;11.156;2023-05-02T00:14:02;9.70;;;7.25;;
15273;SDS011;7738;49.532;11.156;2023-05-02T00:16:33;9.23;;;7.43;;
15273;SDS011;7738;49.532;11.156;2023-05-02T00:19:03;10.35;;;7.70;;
15273;SDS011;7738;49.532;11.156;2023-05-02T00:21:34;11.15;;;7.25;;
15273;SDS011;7738;49.532;11.156;2023-05-02T00:24:07;10.27;;;6.65;;
15273;SDS011;7738;49.532;11.156;2023-05-02T00:26:37;9.23;;;8.18;;
15273;SDS011;7738;49.532;11.156;2023-05-02T00:29:07;12.30;;;9.13;;
15273;SDS011;7738;49.532;11.156;2023-05-02T00:31:39;8.98;;;7.32;;
15273;SDS011;7738;49.532;11.156;2023-05-02T00:34:10;13.25;;;7.25;;
15273;SDS011;7738;49.532;11.156;2023-05-02T00:36:40;13.57;;;7.95;;
15273;SDS011;7738;49.532;11.156;2023-05-02T00:39:13;7.82;;;7.03;;
15273;SDS011;7738;49.532;11.156;2023-05-02T00:41:43;7.78;;;6.43;;
15273;SDS011;7738;49.532;11.156;2023-05-02T00:44:13;11.15;;;7.90;;
15273;SDS011;7738;49.532;11.156;2023-05-02T00:46:45;8.40;;;6.43;;
15273;SDS011;7738;49.532;11.156;2023-05-02T00:49:15;11.18;;;7.47;;
15273;SDS011;7738;49.532;11.156;2023-05-02T00:51:46;8.95;;;7.80;;
15273;SDS011;7738;49.532;11.156;2023-05-02T00:54:19;14.02;;;8.18;;
15273;SDS011;7738;49.532;11.156;2023-05-02T00:56:49;9.10;;;7.50;;
15273;SDS011;7738;49.532;11.156;2023-05-02T00:59:19;8.90;;;7.45;;
15273;SDS011;7738;49.532;11.156;2023-05-02T01:01:52;10.85;;;8.18;;
15273;SDS011;7738;49.532;11.156;2023-05-02T01:04:30;10.10;;;7.15;;
15273;SDS011;7738;49.532;11.156;2023-05-02T01:07:21;12.38;;;7.78;;
15273;SDS011;7738;49.532;11.156;2023-05-02T01:10:00;8.60;;;7.22;;
15273;SDS011;7738;49.532;11.156;2023-05-02T01:12:41;6.85;;;6.15;;
15273;SDS011;7738;49.532;11.156;2023-05-02T01:15:14;11.95;;;7.55;;
15273;SDS011;7738;49.532;11.156;2023-05-02T01:17:47;9.77;;;7.43;;
15273;SDS011;7738;49.532;11.156;2023-05-02T01:20:20;10.00;;;7.30;;
15273;SDS011;7738;49.532;11.156;2023-05-02T01:22:51;8.20;;;6.65;;
15273;SDS011;7738;49.532;11.156;2023-05-02T01:25:28;11.20;;;7.82;;
15273;SDS011;7738;49.532;11.156;2023-05-02T01:28:04;14.93;;;11.00;;
15273;SDS011;7738;49.532;11.156;2023-05-02T01:30:40;17.60;;;12.25;;
15273;SDS011;7738;49.532;11.156;2023-05-02T01:33:12;17.60;;;12.07;;
15273;SDS011;7738;49.532;11.156;2023-05-02T01:35:45;17.52;;;12.52;;
15273;SDS011;7738;49.532;11.156;2023-05-02T01:38:18;21.53;;;12.50;;
15273;SDS011;7738;49.532;11.156;2023-05-02T01:40:50;18.17;;;14.00;;
15273;SDS011;7738;49.532;11.156;2023-05-02T01:43:21;18.98;;;13.80;;
15273;SDS011;7738;49.532;11.156;2023-05-02T01:45:54;18.15;;;13.80;;
15273;SDS011;7738;49.532;11.156;2023-05-02T01:48:26;21.85;;;14.85;;
15273;SDS011;7738;49.532;11.156;2023-05-02T01:50:57;18.30;;;13.73;;
15273;SDS011;7738;49.532;11.156;2023-05-02T01:53:27;17.70;;;12.50;;
15273;SDS011;7738;49.532;11.156;2023-05-02T01:55:58;18.98;;;14.23;;
15273;SDS011;7738;49.532;11.156;2023-05-02T01:58:29;18.63;;;12.70;;
15273;SDS011;7738;49.532;11.156;2023-05-02T02:01:02;20.40;;;13.80;;
15273;SDS011;7738;49.532;11.156;2023-05-02T02:03:33;19.77;;;14.15;;
15273;SDS011;7738;49.532;11.156;2023-05-02T02:06:03;21.15;;;14.32;;
15273;SDS011;7738;49.532;11.156;2023-05-02T02:08:34;19.73;;;12.80;;
15273;SDS011;7738;49.532;11.156;2023-05-02T02:11:07;18.23;;;13.77;;
15273;SDS011;7738;49.532;11.156;2023-05-02T02:13:38;18.70;;;13.70;;
15273;SDS011;7738;49.532;11.156;2023-05-02T02:16:17;20.15;;;15.13;;
15273;SDS011;7738;49.532;11.156;2023-05-02T02:18:52;20.33;;;13.98;;
15273;SDS011;7738;49.532;11.156;2023-05-02T02:21:27;18.77;;;13.93;;
15273;SDS011;7738;49.532;11.156;2023-05-02T02:23:58;20.80;;;14.60;;
15273;SDS011;7738;49.532;11.156;2023-05-02T02:26:30;20.58;;;13.70;;
15273;SDS011;7738;49.532;11.156;2023-05-02T02:29:01;19.33;;;14.27;;
15273;SDS011;7738;49.532;11.156;2023-05-02T02:31:35;16.13;;;12.52;;
15273;SDS011;7738;49.532;11.156;2023-05-02T02:36:38;20.92;;;13.95;;
15273;SDS011;7738;49.532;11.156;2023-05-02T02:39:17;21.15;;;13.40;;
15273;SDS011;7738;49.532;11.156;2023-05-02T02:41:56;20.40;;;13.45;;
15273;SDS011;7738;49.532;11.156;2023-05-02T02:44:34;17.63;;;12.95;;
15273;SDS011;7738;49.532;11.156;2023-05-02T02:47:09;20.80;;;13.75;;
15273;SDS011;7738;49.532;11.156;2023-05-02T02:49:48;22.60;;;13.95;;
15273;SDS011;7738;49.532;11.156;2023-05-02T02:52:20;19.02;;;13.05;;
15273;SDS011;7738;49.532;11.156;2023-05-02T02:54:55;19.80;;;14.90;;
15273;SDS011;7738;49.532;11.156;2023-05-02T02:57:31;22.15;;;13.65;;
15273;SDS011;7738;49.532;11.156;2023-05-02T03:00:04;19.30;;;14.65;;
15273;SDS011;7738;49.532;11.156;2023-05-02T03:02:38;19.73;;;14.13;;
15273;SDS011;7738;49.532;11.156;2023-05-02T03:05:11;17.38;;;12.63;;
15273;SDS011;7738;49.532;11.156;2023-05-02T03:07:42;17.75;;;12.85;;
15273;SDS011;7738;49.532;11.156;2023-05-02T03:10:12;19.33;;;13.48;;
15273;SDS011;7738;49.532;11.156;2023-05-02T03:12:43;17.27;;;12.50;;
15273;SDS011;7738;49.532;11.156;2023-05-02T03:15:19;18.02;;;12.57;;
15273;SDS011;7738;49.532;11.156;2023-05-02T03:17:55;18.65;;;12.38;;
15273;SDS011;7738;49.532;11.156;2023-05-02T03:20:25;14.90;;;11.98;;
15273;SDS011;7738;49.532;11.156;2023-05-02T03:22:55;16.00;;;11.32;;
15273;SDS011;7738;49.532;11.156;2023-05-02T03:25:25;17.83;;;11.82;;
15273;SDS011;7738;49.532;11.156;2023-05-02T03:27:56;15.38;;;12.23;;
15273;SDS011;7738;49.532;11.156;2023-05-02T03:30:26;14.95;;;11.10;;
15273;SDS011;7738;49.532;11.156;2023-05-02T03:33:00;16.63;;;12.00;;
15273;SDS011;7738;49.532;11.156;2023-05-02T03:35:35;17.17;;;12.90;;
15273;SDS011;7738;49.532;11.156;2023-05-02T03:38:05;18.92;;;13.32;;
15273;SDS011;7738;49.532;11.156;2023-05-02T03:40:36;20.30;;;12.57;;
15273;SDS011;7738;49.532;11.156;2023-05-02T03:43:09;19.77;;;13.15;;
15273;SDS011;7738;49.532;11.156;2023-05-02T03:45:40;21.98;;;12.43;;
15273;SDS011;7738;49.532;11.156;2023-05-02T03:48:17;19.90;;;13.20;;
15273;SDS011;7738;49.532;11.156;2023-05-02T03:50:47;17.10;;;13.35;;
15273;SDS011;7738;49.532;11.156;2023-05-02T03:53:17;16.92;;;13.75;;
15273;SDS011;7738;49.532;11.156;2023-05-02T03:55:52;17.83;;;13.30;;
15273;SDS011;7738;49.532;11.156;2023-05-02T03:58:32;18.48;;;13.02;;
15273;SDS011;7738;49.532;11.156;2023-05-02T04:01:03;19.30;;;12.95;;
15273;SDS011;7738;49.532;11.156;2023-05-02T04:03:49;18.45;;;12.65;;
15273;SDS011;7738;49.532;11.156;2023-05-02T04:06:22;17.90;;;12.40;;
15273;SDS011;7738;49.532;11.156;2023-05-02T04:08:57;14.52;;;10.55;;
15273;SDS011;7738;49.532;11.156;2023-05-02T04:11:35;13.52;;;10.98;;
15273;SDS011;7738;49.532;11.156;2023-05-02T04:14:06;17.65;;;11.75;;
15273;SDS011;7738;49.532;11.156;2023-05-02T04:16:37;14.75;;;10.13;;
15273;SDS011;7738;49.532;11.156;2023-05-02T04:19:11;13.85;;;9.60;;
15273;SDS011;7738;49.532;11.156;2023-05-02T04:21:42;14.88;;;9.93;;
15273;SDS011;7738;49.532;11.156;2023-05-02T04:24:13;15.90;;;10.23;;
15273;SDS011;7738;49.532;11.156;2023-05-02T04:26:43;16.13;;;11.57;;
15273;SDS011;7738;49.532;11.156;2023-05-02T04:29:14;16.23;;;10.48;;
15273;SDS011;7738;49.532;11.156;2023-05-02T04:31:45;15.18;;;10.55;;
15273;SDS011;7738;49.532;11.156;2023-05-02T04:34:19;14.65;;;11.27;;
15273;SDS011;7738;49.532;11.156;2023-05-02T04:36:49;16.00;;;11.88;;
15273;SDS011;7738;49.532;11.156;2023-05-02T04:39:22;13.50;;;10.48;;
15273;SDS011;7738;49.532;11.156;2023-05-02T04:42:00;17.65;;;11.52;;
15273;SDS011;7738;49.532;11.156;2023-05-02T04:44:36;13.93;;;11.27;;
15273;SDS011;7738;49.532;11.156;2023-05-02T04:47:06;13.23;;;10.63;;
15273;SDS011;7738;49.532;11.156;2023-05-02T04:49:40;14.68;;;11.68;;
15273;SDS011;7738;49.532;11.156;2023-05-02T04:52:10;17.92;;;12.45;;
15273;SDS011;7738;49.532;11.156;2023-05-02T04:54:40;17.45;;;13.38;;
15273;SDS011;7738;49.532;11.156;2023-05-02T04:57:11;19.48;;;12.32;;
15273;SDS011;7738;49.532;11.156;2023-05-02T04:59:45;15.93;;;11.75;;
15273;SDS011;7738;49.532;11.156;2023-05-02T05:02:16;13.82;;;10.55;;
15273;SDS011;7738;49.532;11.156;2023-05-02T05:04:49;12.93;;;10.35;;
15273;SDS011;7738;49.532;11.156;2023-05-02T05:07:19;16.02;;;11.75;;
15273;SDS011;7738;49.532;11.156;2023-05-02T05:09:52;22.77;;;14.23;;
15273;SDS011;7738;49.532;11.156;2023-05-02T05:12:26;21.40;;;15.18;;
15273;SDS011;7738;49.532;11.156;2023-05-02T05:14:57;17.75;;;14.13;;
15273;SDS011;7738;49.532;11.156;2023-05-02T05:17:29;18.08;;;14.20;;
15273;SDS011;7738;49.532;11.156;2023-05-02T05:20:04;17.95;;;13.23;;
15273;SDS011;7738;49.532;11.156;2023-05-02T05:22:37;22.15;;;13.07;;
15273;SDS011;7738;49.532;11.156;2023-05-02T05:25:10;18.83;;;13.98;;
15273;SDS011;7738;49.532;11.156;2023-05-02T05:27:42;20.08;;;14.60;;
15273;SDS011;7738;49.532;11.156;2023-05-02T05:30:12;19.60;;;14.82;;
15273;SDS011;7738;49.532;11.156;2023-05-02T05:32:43;18.60;;;13.80;;
15273;SDS011;7738;49.532;11.156;2023-05-02T05:35:18;18.83;;;13.40;;
15273;SDS011;7738;49.532;11.156;2023-05-02T05:37:48;26.23;;;14.88;;
15273;SDS011;7738;49.532;11.156;2023-05-02T05:40:19;21.05;;;14.20;;
15273;SDS011;7738;49.532;11.156;2023-05-02T05:42:54;19.50;;;14.65;;
15273;SDS011;7738;49.532;11.156;2023-05-02T05:45:32;19.73;;;14.57;;
15273;SDS011;7738;49.532;11.156;2023-05-02T05:48:03;17.25;;;13.27;;
15273;SDS011;7738;49.532;11.156;2023-05-02T05:50:42;22.83;;;14.30;;
15273;SDS011;7738;49.532;11.156;2023-05-02T05:53:13;20.38;;;12.43;;
15273;SDS011;7738;49.532;11.156;2023-05-02T05:55:46;21.85;;;14.70;;
15273;SDS011;7738;49.532;11.156;2023-05-02T05:58:18;17.40;;;12.52;;
15273;SDS011;7738;49.532;11.156;2023-05-02T06:00:50;19.58;;;13.20;;
15273;SDS011;7738;49.532;11.156;2023-05-02T06:03:20;23.92;;;13.63;;
15273;SDS011;7738;49.532;11.156;2023-05-02T06:05:53;18.63;;;12.40;;
15273;SDS011;7738;49.532;11.156;2023-05-02T06:08:24;20.57;;;12.23;;
15273;SDS011;7738;49.532;11.156;2023-05-02T06:10:54;16.80;;;12.07;;
15273;SDS011;7738;49.532;11.156;2023-05-02T06:13:25;20.42;;;13.50;;
15273;SDS011;7738;49.532;11.156;2023-05-02T06:15:58;19.60;;;13.13;;
15273;SDS011;7738;49.532;11.156;2023-05-02T06:18:29;22.38;;;12.02;;
15273;SDS011;7738;49.532;11.156;2023-05-02T06:21:05;18.92;;;13.25;;
15273;SDS011;7738;49.532;11.156;2023-05-02T06:23:35;19.00;;;12.50;;
15273;SDS011;7738;49.532;11.156;2023-05-02T06:26:06;19.45;;;12.55;;
15273;SDS011;7738;49.532;11.156;2023-05-02T06:28:36;20.80;;;13.32;;
15273;SDS011;7738;49.532;11.156;2023-05-02T06:31:07;18.35;;;12.52;;
15273;SDS011;7738;49.532;11.156;2023-05-02T06:33:37;14.45;;;11.43;;
15273;SDS011;7738;49.532;11.156;2023-05-02T06:36:11;17.15;;;12.27;;
15273;SDS011;7738;49.532;11.156;2023-05-02T06:38:41;20.35;;;12.50;;
15273;SDS011;7738;49.532;11.156;2023-05-02T06:41:11;19.67;;;11.52;;
15273;SDS011;7738;49.532;11.156;2023-05-02T06:43:43;18.13;;;12.43;;
15273;SDS011;7738;49.532;11.156;2023-05-02T06:46:14;17.83;;;12.52;;
15273;SDS011;7738;49.532;11.156;2023-05-02T06:48:45;16.55;;;12.75;;
15273;SDS011;7738;49.532;11.156;2023-05-02T06:51:19;27.27;;;13.70;;
15273;SDS011;7738;49.532;11.156;2023-05-02T06:53:49;18.98;;;12.50;;
15273;SDS011;7738;49.532;11.156;2023-05-02T06:56:19;16.10;;;12.70;;
15273;SDS011;7738;49.532;11.156;2023-05-02T06:58:51;20.77;;;12.70;;
15273;SDS011;7738;49.532;11.156;2023-05-02T07:01:21;20.65;;;12.57;;
15273;SDS011;7738;49.532;11.156;2023-05-02T07:03:51;19.45;;;13.77;;
15273;SDS011;7738;49.532;11.156;2023-05-02T07:06:25;18.17;;;12.23;;
15273;SDS011;7738;49.532;11.156;2023-05-02T07:08:55;18.40;;;12.73;;
15273;SDS011;7738;49.532;11.156;2023-05-02T07:11:25;16.25;;;11.85;;
15273;SDS011;7738;49.532;11.156;2023-05-02T07:13:56;17.17;;;12.70;;
15273;SDS011;7738;49.532;11.156;2023-05-02T07:16:26;15.30;;;11.98;;
15273;SDS011;7738;49.532;11.156;2023-05-02T07:18:57;19.95;;;13.15;;
15273;SDS011;7738;49.532;11.156;2023-05-02T07:21:32;18.08;;;12.52;;
15273;SDS011;7738;49.532;11.156;2023-05-02T07:24:03;18.63;;;12.43;;
15273;SDS011;7738;49.532;11.156;2023-05-02T07:26:33;17.77;;;12.52;;
15273;SDS011;7738;49.532;11.156;2023-05-02T07:29:03;18.55;;;12.45;;
15273;SDS011;7738;49.532;11.156;2023-05-02T07:31:35;15.75;;;11.35;;
15273;SDS011;7738;49.532;11.156;2023-05-02T07:34:05;15.82;;;12.35;;
15273;SDS011;7738;49.532;11.156;2023-05-02T07:36:38;14.02;;;11.55;;
15273;SDS011;7738;49.532;11.156;2023-05-02T07:39:09;16.63;;;10.73;;
15273;SDS011;7738;49.532;11.156;2023-05-02T07:41:39;15.57;;;11.00;;
15273;SDS011;7738;49.532;11.156;2023-05-02T07:44:10;15.65;;;10.68;;
15273;SDS011;7738;49.532;11.156;2023-05-02T07:46:40;12.30;;;9.32;;
15273;SDS011;7738;49.532;11.156;2023-05-02T07:49:11;11.98;;;9.18;;
15273;SDS011;7738;49.532;11.156;2023-05-02T07:51:44;13.48;;;9.63;;
15273;SDS011;7738;49.532;11.156;2023-05-02T07:54:14;13.95;;;8.85;;
15273;SDS011;7738;49.532;11.156;2023-05-02T07:56:45;10.52;;;7.95;;
15273;SDS011;7738;49.532;11.156;2023-05-02T07:59:15;11.30;;;7.90;;
15273;SDS011;7738;49.532;11.156;2023-05-02T08:01:45;14.68;;;8.25;;
15273;SDS011;7738;49.532;11.156;2023-05-02T08:04:16;8.13;;;7.05;;
15273;SDS011;7738;49.532;11.156;2023-05-02T08:06:49;11.27;;;7.55;;
15273;SDS011;7738;49.532;11.156;2023-05-02T08:09:19;9.73;;;7.63;;
15273;SDS011;7738;49.532;11.156;2023-05-02T08:11:49;9.95;;;7.80;;
15273;SDS011;7738;49.532;11.156;2023-05-02T08:14:20;8.75;;;7.85;;
15273;SDS011;7738;49.532;11.156;2023-05-02T08:16:50;7.53;;;6.43;;
15273;SDS011;7738;49.532;11.156;2023-05-02T08:19:20;12.65;;;7.57;;
15273;SDS011;7738;49.532;11.156;2023-05-02T08:21:54;7.93;;;6.75;;
15273;SDS011;7738;49.532;11.156;2023-05-02T08:24:24;8.63;;;7.70;;
15273;SDS011;7738;49.532;11.156;2023-05-02T08:26:56;9.65;;;7.47;;
15273;SDS011;7738;49.532;11.156;2023-05-02T08:29:28;10.57;;;7.53;;
15273;SDS011;7738;49.532;11.156;2023-05-02T08:31:59;10.25;;;6.60;;
15273;SDS011;7738;49.532;11.156;2023-05-02T08:34:29;10.50;;;7.47;;
15273;SDS011;7738;49.532;11.156;2023-05-02T08:37:06;10.40;;;7.82;;
15273;SDS011;7738;49.532;11.156;2023-05-02T08:39:37;7.90;;;6.82;;
15273;SDS011;7738;49.532;11.156;2023-05-02T08:42:08;9.70;;;7.72;;
15273;SDS011;7738;49.532;11.156;2023-05-02T08:44:38;8.18;;;7.07;;
15273;SDS011;7738;49.532;11.156;2023-05-02T08:47:09;11.45;;;7.28;;
15273;SDS011;7738;49.532;11.156;2023-05-02T08:49:40;10.15;;;8.00;;
15273;SDS011;7738;49.532;11.156;2023-05-02T08:52:14;11.98;;;7.97;;
15273;SDS011;7738;49.532;11.156;2023-05-02T08:54:46;12.15;;;8.38;;
15273;SDS011;7738;49.532;11.156;2023-05-02T08:57:17;10.13;;;7.80;;
15273;SDS011;7738;49.532;11.156;2023-05-02T08:59:47;11.07;;;8.82;;
15273;SDS011;7738;49.532;11.156;2023-05-02T09:02:20;9.48;;;7.45;;
15273;SDS011;7738;49.532;11.156;2023-05-02T09:04:59;10.23;;;7.80;;
15273;SDS011;7738;49.532;11.156;2023-05-02T09:07:45;9.57;;;7.75;;
15273;SDS011;7738;49.532;11.156;2023-05-02T09:10:16;9.70;;;7.35;;
15273;SDS011;7738;49.532;11.156;2023-05-02T09:12:46;9.10;;;8.20;;
15273;SDS011;7738;49.532;11.156;2023-05-02T09:15:16;8.07;;;7.28;;
15273;SDS011;7738;49.532;11.156;2023-05-02T09:17:47;9.48;;;6.88;;
15273;SDS011;7738;49.532;11.156;2023-05-02T09:20:17;9.63;;;6.53;;
15273;SDS011;7738;49.532;11.156;2023-05-02T09:22:51;8.15;;;6.32;;
15273;SDS011;7738;49.532;11.156;2023-05-02T09:25:21;6.43;;;5.82;;
15273;SDS011;7738;49.532;11.156;2023-05-02T09:27:52;7.60;;;6.35;;
15273;SDS011;7738;49.532;11.156;2023-05-02T09:30:27;6.88;;;6.15;;
15273;SDS011;7738;49.532;11.156;2023-05-02T09:32:58;7.25;;;6.00;;
15273;SDS011;7738;49.532;11.156;2023-05-02T09:35:28;7.72;;;6.05;;
15273;SDS011;7738;49.532;11.156;2023-05-02T09:38:01;7.22;;;6.25;;
15273;SDS011;7738;49.532;11.156;2023-05-02T09:40:31;9.98;;;6.55;;
15273;SDS011;7738;49.532;11.156;2023-05-02T09:43:12;6.80;;;5.80;;
15273;SDS011;7738;49.532;11.156;2023-05-02T09:45:54;7.50;;;6.30;;
15273;SDS011;7738;49.532;11.156;2023-05-02T09:48:26;7.47;;;5.82;;
15273;SDS011;7738;49.532;11.156;2023-05-02T09:50:56;7.93;;;5.47;;
15273;SDS011;7738;49.532;11.156;2023-05-02T09:53:29;6.72;;;5.75;;
15273;SDS011;7738;49.532;11.156;2023-05-02T09:56:00;9.02;;;5.85;;
15273;SDS011;7738;49.532;11.156;2023-05-02T09:58:31;8.55;;;6.07;;
15273;SDS011;7738;49.532;11.156;2023-05-02T10:01:01;9.25;;;5.65;;
15273;SDS011;7738;49.532;11.156;2023-05-02T10:03:32;7.05;;;5.93;;
15273;SDS011;7738;49.532;11.156;2023-05-02T10:06:06;8.18;;;5.90;;
15273;SDS011;7738;49.532;11.156;2023-05-02T10:08:40;7.63;;;5.82;;
15273;SDS011;7738;49.532;11.156;2023-05-02T10:11:13;6.65;;;5.15;;
15273;SDS011;7738;49.532;11.156;2023-05-02T10:13:43;7.55;;;5.75;;
15273;SDS011;7738;49.532;11.156;2023-05-02T10:16:14;8.52;;;5.82;;
15273;SDS011;7738;49.532;11.156;2023-05-02T10:18:54;7.95;;;5.93;;
15273;SDS011;7738;49.532;11.156;2023-05-02T10:21:31;8.10;;;6.10;;
15273;SDS011;7738;49.532;11.156;2023-05-02T10:24:05;8.23;;;6.15;;
15273;SDS011;7738;49.532;11.156;2023-05-02T10:26:35;7.60;;;5.30;;
15273;SDS011;7738;49.532;11.156;2023-05-02T10:29:06;7.07;;;5.50;;
15273;SDS011;7738;49.532;11.156;2023-05-02T10:31:36;8.40;;;5.32;;
15273;SDS011;7738;49.532;11.156;2023-05-02T10:34:10;9.65;;;5.53;;
15273;SDS011;7738;49.532;11.156;2023-05-02T10:36:42;6.97;;;5.15;;
15273;SDS011;7738;49.532;11.156;2023-05-02T10:39:15;8.68;;;5.50;;
15273;SDS011;7738;49.532;11.156;2023-05-02T10:41:50;5.68;;;4.85;;
15273;SDS011;7738;49.532;11.156;2023-05-02T10:44:31;5.72;;;5.18;;
15273;SDS011;7738;49.532;11.156;2023-05-02T10:49:50;6.28;;;4.60;;
15273;SDS011;7738;49.532;11.156;2023-05-02T10:52:24;4.45;;;3.53;;
15273;SDS011;7738;49.532;11.156;2023-05-02T11:00:50;4.97;;;3.38;;
15273;SDS011;7738;49.532;11.156;2023-05-02T11:06:21;4.88;;;3.42;;
15273;SDS011;7738;49.532;11.156;2023-05-02T11:08:52;4.70;;;3.88;;
15273;SDS011;7738;49.532;11.156;2023-05-02T11:14:11;5.25;;;3.90;;
15273;SDS011;7738;49.532;11.156;2023-05-02T11:17:06;4.57;;;3.20;;
15273;SDS011;7738;49.532;11.156;2023-05-02T11:22:52;5.32;;;3.10;;
15273;SDS011;7738;49.532;11.156;2023-05-02T11:25:36;3.60;;;3.03;;
15273;SDS011;7738;49.532;11.156;2023-05-02T11:34:14;5.60;;;3.70;;
15273;SDS011;7738;49.532;11.156;2023-05-02T11:36:45;4.30;;;2.80;;
15273;SDS011;7738;49.532;11.156;2023-05-02T11:39:18;5.45;;;3.47;;
15273;SDS011;7738;49.532;11.156;2023-05-02T11:41:49;5.57;;;3.05;;
15273;SDS011;7738;49.532;11.156;2023-05-02T11:44:23;4.50;;;2.88;;
15273;SDS011;7738;49.532;11.156;2023-05-02T11:46:54;5.60;;;2.78;;
15273;SDS011;7738;49.532;11.156;2023-05-02T11:49:24;5.53;;;2.75;;
15273;SDS011;7738;49.532;11.156;2023-05-02T11:51:54;5.57;;;3.60;;
15273;SDS011;7738;49.532;11.156;2023-05-02T11:54:27;3.35;;;3.05;;
15273;SDS011;7738;49.532;11.156;2023-05-02T11:56:59;5.63;;;3.08;;
15273;SDS011;7738;49.532;11.156;2023-05-02T11:59:32;3.65;;;2.95;;
15273;SDS011;7738;49.532;11.156;2023-05-02T12:02:18;4.20;;;2.55;;
15273;SDS011;7738;49.532;11.156;2023-05-02T12:04:49;3.45;;;2.72;;
15273;SDS011;7738;49.532;11.156;2023-05-02T12:07:18;5.18;;;3.13;;
15273;SDS011;7738;49.532;11.156;2023-05-02T12:09:49;5.10;;;2.95;;
15273;SDS011;7738;49.532;11.156;2023-05-02T12:12:20;5.95;;;3.42;;
15273;SDS011;7738;49.532;11.156;2023-05-02T12:14:53;5.88;;;3.55;;
15273;SDS011;7738;49.532;11.156;2023-05-02T12:17:23;2.85;;;2.45;;
15273;SDS011;7738;49.532;11.156;2023-05-02T12:19:53;4.47;;;2.72;;
15273;SDS011;7738;49.532;11.156;2023-05-02T12:22:23;6.13;;;2.00;;
15273;SDS011;7738;49.532;11.156;2023-05-02T12:24:54;3.72;;;2.83;;
15273;SDS011;7738;49.532;11.156;2023-05-02T12:27:24;3.67;;;2.60;;
15273;SDS011;7738;49.532;11.156;2023-05-02T12:29:58;2.78;;;2.35;;
15273;SDS011;7738;49.532;11.156;2023-05-02T12:32:29;2.92;;;1.60;;
15273;SDS011;7738;49.532;11.156;2023-05-02T12:35:02;2.80;;;1.90;;
15273;SDS011;7738;49.532;11.156;2023-05-02T12:37:33;2.85;;;1.70;;
15273;SDS011;7738;49.532;11.156;2023-05-02T12:40:13;3.03;;;1.70;;
15273;SDS011;7738;49.532;11.156;2023-05-02T12:42:56;2.25;;;1.92;;
15273;SDS011;7738;49.532;11.156;2023-05-02T12:45:32;1.80;;;1.08;;
15273;SDS011;7738;49.532;11.156;2023-05-02T12:48:16;2.23;;;1.03;;
15273;SDS011;7738;49.532;11.156;2023-05-02T12:50:47;1.48;;;0.93;;
15273;SDS011;7738;49.532;11.156;2023-05-02T12:56:09;0.73;;;0.35;;
15273;SDS011;7738;49.532;11.156;2023-05-02T12:58:40;1.98;;;0.90;;
15273;SDS011;7738;49.532;11.156;2023-05-02T13:01:14;1.88;;;1.42;;
15273;SDS011;7738;49.532;11.156;2023-05-02T13:03:44;2.55;;;1.55;;
15273;SDS011;7738;49.532;11.156;2023-05-02T13:06:14;3.28;;;1.58;;
15273;SDS011;7738;49.532;11.156;2023-05-02T13:08:44;3.85;;;2.47;;
15273;SDS011;7738;49.532;11.156;2023-05-02T13:11:14;4.28;;;2.60;;
15273;SDS011;7738;49.532;11.156;2023-05-02T13:13:45;3.33;;;2.55;;
15273;SDS011;7738;49.532;11.156;2023-05-02T13:16:18;2.25;;;1.70;;
15273;SDS011;7738;49.532;11.156;2023-05-02T13:18:48;3.72;;;2.05;;
15273;SDS011;7738;49.532;11.156;2023-05-02T13:21:18;2.78;;;1.50;;
15273;SDS011;7738;49.532;11.156;2023-05-02T13:23:48;1.60;;;0.98;;
15273;SDS011;7738;49.532;11.156;2023-05-02T13:26:20;1.52;;;1.00;;
15273;SDS011;7738;49.532;11.156;2023-05-02T13:28:50;1.88;;;1.45;;
15273;SDS011;7738;49.532;11.156;2023-05-02T13:31:24;2.33;;;1.90;;
15273;SDS011;7738;49.532;11.156;2023-05-02T13:33:54;3.45;;;2.20;;
15273;SDS011;7738;49.532;11.156;2023-05-02T13:36:24;2.17;;;1.50;;
15273;SDS011;7738;49.532;11.156;2023-05-02T13:38:54;4.43;;;1.85;;
15273;SDS011;7738;49.532;11.156;2023-05-02T13:41:24;2.58;;;1.60;;
15273;SDS011;7738;49.532;11.156;2023-05-02T13:43:54;2.80;;;2.35;;
15273;SDS011;7738;49.532;11.156;2023-05-02T13:46:27;2.65;;;2.45;;
15273;SDS011;7738;49.532;11.156;2023-05-02T13:49:02;3.88;;;3.15;;
15273;SDS011;7738;49.532;11.156;2023-05-02T13:51:32;6.65;;;3.20;;
15273;SDS011;7738;49.532;11.156;2023-05-02T13:54:02;5.50;;;3.80;;
15273;SDS011;7738;49.532;11.156;2023-05-02T13:56:32;4.72;;;3.40;;
15273;SDS011;7738;49.532;11.156;2023-05-02T13:59:02;5.57;;;3.92;;
15273;SDS011;7738;49.532;11.156;2023-05-02T14:01:37;4.80;;;3.50;;
15273;SDS011;7738;49.532;11.156;2023-05-02T14:04:07;5.45;;;3.80;;
15273;SDS011;7738;49.532;11.156;2023-05-02T14:06:38;5.60;;;3.72;;
15273;SDS011;7738;49.532;11.156;2023-05-02T14:09:08;4.78;;;4.18;;
15273;SDS011;7738;49.532;11.156;2023-05-02T14:11:38;6.25;;;4.53;;
15273;SDS011;7738;49.532;11.156;2023-05-02T14:14:10;6.07;;;4.72;;
15273;SDS011;7738;49.532;11.156;2023-05-02T14:16:43;4.90;;;4.22;;
15273;SDS011;7738;49.532;11.156;2023-05-02T14:19:15;5.43;;;3.78;;
15273;SDS011;7738;49.532;11.156;2023-05-02T14:21:46;2.67;;;2.10;;
15273;SDS011;7738;49.532;11.156;2023-05-02T14:24:16;1.20;;;0.85;;
15273;SDS011;7738;49.532;11.156;2023-05-02T14:26:46;1.55;;;1.30;;
15273;SDS011;7738;49.532;11.156;2023-05-02T14:29:16;1.90;;;1.40;;
15273;SDS011;7738;49.532;11.156;2023-05-02T14:31:49;3.88;;;1.38;;
15273;SDS011;7738;49.532;11.156;2023-05-02T14:34:19;2.25;;;1.20;;
15273;SDS011;7738;49.532;11.156;2023-05-02T14:36:52;2.45;;;1.45;;
15273;SDS011;7738;49.532;11.156;2023-05-02T14:39:22;1.38;;;0.93;;
15273;SDS011;7738;49.532;11.156;2023-05-02T14:41:53;1.33;;;0.65;;
15273;SDS011;7738;49.532;11.156;2023-05-02T14:44:23;0.88;;;0.75;;
15273;SDS011;7738;49.532;11.156;2023-05-02T14:46:56;2.80;;;1.00;;
15273;SDS011;7738;49.532;11.156;2023-05-02T14:49:26;2.10;;;1.00;;
15273;SDS011;7738;49.532;11.156;2023-05-02T14:51:56;1.92;;;1.08;;
15273;SDS011;7738;49.532;11.156;2023-05-02T14:54:26;2.47;;;0.73;;
15273;SDS011;7738;49.532;11.156;2023-05-02T14:56:58;2.00;;;0.90;;
15273;SDS011;7738;49.532;11.156;2023-05-02T14:59:29;1.55;;;0.82;;
15273;SDS011;7738;49.532;11.156;2023-05-02T15:02:04;1.75;;;1.13;;
15273;SDS011;7738;49.532;11.156;2023-05-02T15:04:34;1.30;;;1.17;;
15273;SDS011;7738;49.532;11.156;2023-05-02T15:07:04;1.35;;;0.95;;
15273;SDS011;7738;49.532;11.156;2023-05-02T15:09:35;3.53;;;0.90;;
15273;SDS011;7738;49.532;11.156;2023-05-02T15:12:05;2.00;;;1.10;;
15273;SDS011;7738;49.532;11.156;2023-05-02T15:14:35;1.50;;;1.05;;
15273;SDS011;7738;49.532;11.156;2023-05-02T15:17:07;2.70;;;1.00;;
15273;SDS011;7738;49.532;11.156;2023-05-02T15:19:38;1.15;;;0.88;;
15273;SDS011;7738;49.532;11.156;2023-05-02T15:22:08;1.20;;;0.63;;
15273;SDS011;7738;49.532;11.156;2023-05-02T15:24:38;1.10;;;0.63;;
15273;SDS011;7738;49.532;11.156;2023-05-02T15:27:09;0.60;;;0.20;;
15273;SDS011;7738;49.532;11.156;2023-05-02T15:29:39;0.52;;;0.20;;
15273;SDS011;7738;49.532;11.156;2023-05-02T15:32:12;0.93;;;0.20;;
15273;SDS011;7738;49.532;11.156;2023-05-02T15:34:42;0.40;;;0.10;;